Coeur d'Alene, ID (83814)

1:11 AM PDT on April 26, 2015 (GMT -0700)
Indian Meadows | | Change Station
CLOSE
Current Station
Personal Weather Station
Location: Coeur D'Alene, ID
Elevation: 2250 ft
Nearby Weather Stations

Elev 2250 ft 47.71 °N, 116.83 °W | Updated 37 seconds ago

Clear
Clear
37.8 °F
Feels Like 38 °F
N
0.0
Wind Variable Wind from East
Gusts 0.0 mph

Today
High -- | Low -- °F
--% Chance of Precip.
Yesterday
High -- | Low -- °F
Precip. -- in
5:38 AM 7:52 PM
First Quarter, 53% visible
Pressure 30.01 in
Visibility 10.0 miles
Clouds Clear
Windchill 38 °F
Dew Point 35 °F
Humidity 89%
Rainfall 0.00 in
Snow Depth Not available.
UV 0 out of 12
Pollen 9.00 out of 12
Air Quality Not available.
Flu Activity Sporadic
METAR KCOE 260755Z AUTO 00000KT 10SM CLR 02/00 A3001 RMK AO1

More Conditions Fewer Conditions

Pressure 30.01 in
Visibility 10.0 miles
Clouds Clear
Windchill 38 °F
Dew Point 35 °F
Humidity 89%
Rainfall 0.00 in
Snow Depth Not available.
UV 0 out of 12
Pollen 9.00 out of 12
Air Quality Not available.
Flu Activity Sporadic
METAR KCOE 260755Z AUTO 00000KT 10SM CLR 02/00 A3001 RMK AO1

More Conditions Fewer Conditions

The full scope of the disaster following a powerful 7.8-magnitude earthquake in Nepal may not come into view for days, but global charities are already sending emergency aid. Click to see how you can help.

10-Day Weather Forecast

Almanac

Astronomy

Apr. 26, 2015 Rise Set
Actual Time
Civil Twilight
Nautical Twilight
Astronomical Twilight
Moon
Length of Visible Light
Length of Day
Tomorrow will be .
, % of the Moon is Illuminated

Today's Extremes

State Highs State Lows

Community

WunderPhotos

Upload Photos

1,816,953 photos uploaded!

WunderBlogs® & News

Nearby

Air Quality

  Air Quality AQ Index Pollutant
Not available.

Snow Depth

Station Depth Elevation

Earthquake Activity

City Distance Mag. Time & Date
Minimum magnitude displayed is 2.5.

Coastal Water Temperatures

Place Temperature

Stations

Nearby Weather Stations

Station Location Temp. Windchill Dew Point Humidity Wind Precip. Elev Updated Type